createdAt,value
2019-05-16T00:00:15.483Z,100765.81
2019-05-16T00:02:48.072Z,100769.97
2019-05-16T00:05:19.642Z,100766.25
2019-05-16T00:07:51.041Z,100760.34
2019-05-16T00:10:22.520Z,100758.06
2019-05-16T00:12:54.023Z,100757.97
2019-05-16T00:15:25.520Z,100751.70
2019-05-16T00:17:58.398Z,100745.47
2019-05-16T00:20:30.018Z,100747.14
2019-05-16T00:23:01.546Z,100744.19
2019-05-16T00:25:33.327Z,100737.23
2019-05-16T00:28:04.859Z,100721.56
2019-05-16T00:30:38.952Z,100721.59
2019-05-16T00:33:09.715Z,100719.32
2019-05-16T00:35:41.092Z,100718.95
2019-05-16T00:38:12.604Z,100714.41
2019-05-16T00:40:45.727Z,100711.34
2019-05-16T00:43:18.412Z,100704.95
2019-05-16T00:45:49.898Z,100707.42
2019-05-16T00:48:21.308Z,100699.55
2019-05-16T00:50:52.804Z,100695.17
2019-05-16T00:59:49.741Z,100697.50
2019-05-16T01:02:21.092Z,100692.10
2019-05-16T01:04:52.367Z,100692.59
2019-05-16T01:07:23.742Z,100686.17
2019-05-16T01:09:55.173Z,100687.55
2019-05-16T01:12:28.417Z,100686.20
2019-05-16T01:14:59.800Z,100683.11
2019-05-16T01:17:31.305Z,100677.83
2019-05-16T01:20:02.868Z,100680.11
2019-05-16T01:22:34.133Z,100673.88
2019-05-16T01:25:09.461Z,100671.70
2019-05-16T01:27:40.131Z,100672.59
2019-05-16T01:30:12.022Z,100670.45
2019-05-16T01:32:43.503Z,100670.94
2019-05-16T01:35:15.130Z,100665.33
2019-05-16T01:37:48.595Z,100664.59
2019-05-16T01:40:20.831Z,100660.30
2019-05-16T01:42:52.216Z,100660.27
2019-05-16T01:45:23.608Z,100660.18
2019-05-16T01:47:55.089Z,100658.73
2019-05-16T01:50:28.385Z,100653.92
2019-05-16T01:52:59.755Z,100653.41
2019-05-16T01:55:31.604Z,100659.20
2019-05-16T01:58:03.070Z,100660.18
2019-05-16T02:00:37.544Z,100659.38
2019-05-16T02:03:08.832Z,100655.52
2019-05-16T02:05:40.478Z,100652.42
2019-05-16T02:08:12.046Z,100651.47
2019-05-16T02:10:43.406Z,100652.23
2019-05-16T02:13:14.923Z,100655.77
2019-05-16T02:15:48.628Z,100652.79
2019-05-16T02:18:19.632Z,100651.09
2019-05-16T02:20:50.899Z,100648.09
2019-05-16T02:23:22.408Z,100649.04
2019-05-16T02:25:53.809Z,100640.20
2019-05-16T02:28:30.913Z,100640.27
2019-05-16T02:31:01.312Z,100637.59
2019-05-16T02:33:31.921Z,100636.63
2019-05-16T02:36:03.391Z,100634.42
2019-05-16T02:38:34.914Z,100631.38
2019-05-16T02:41:06.423Z,100634.08
2019-05-16T02:43:41.308Z,100623.92
2019-05-16T02:46:12.077Z,100615.55
2019-05-16T02:48:43.790Z,100621.31
2019-05-16T02:51:16.252Z,100619.08
2019-05-16T02:53:50.783Z,100621.26
2019-05-16T02:56:21.375Z,100618.27
2019-05-16T02:58:52.846Z,100609.99
2019-05-16T03:01:24.344Z,100605.09
2019-05-16T03:03:55.747Z,100605.52
2019-05-16T03:06:31.813Z,100604.14
2019-05-16T03:09:05.759Z,100591.88
2019-05-16T03:11:37.481Z,100597.63
2019-05-16T03:14:11.235Z,100598.06
2019-05-16T03:16:42.255Z,100591.93
2019-05-16T03:19:15.677Z,100594.14
2019-05-16T03:21:50.909Z,100589.31
2019-05-16T03:24:21.926Z,100579.60
2019-05-16T03:26:53.502Z,100587.05
2019-05-16T03:29:24.825Z,100578.69
2019-05-16T03:31:56.245Z,100573.02
2019-05-16T03:34:27.595Z,100575.19
2019-05-16T03:37:04.295Z,100569.94
2019-05-16T03:39:32.194Z,100569.05
2019-05-16T03:42:03.569Z,100569.52
2019-05-16T03:44:34.813Z,100565.13
2019-05-16T03:47:06.322Z,100562.48
2019-05-16T03:49:37.635Z,100563.80
2019-05-16T03:52:11.318Z,100559.42
2019-05-16T03:54:42.268Z,100562.54
2019-05-16T03:57:14.736Z,100553.69
2019-05-16T03:59:46.172Z,100547.09
2019-05-16T04:02:17.546Z,100553.17
2019-05-16T04:04:51.131Z,100545.69
2019-05-16T04:07:22.099Z,100549.22
2019-05-16T04:09:53.575Z,100548.22
2019-05-16T04:12:25.050Z,100551.72
2019-05-16T04:14:56.609Z,100548.57
2019-05-16T04:17:28.074Z,100543.70
2019-05-16T04:20:01.960Z,100538.41
2019-05-16T04:22:32.573Z,100536.66
2019-05-16T04:25:05.787Z,100538.83
2019-05-16T04:27:37.376Z,100539.23
2019-05-16T04:30:11.792Z,100537.13
2019-05-16T04:32:42.433Z,100541.92
2019-05-16T04:35:14.133Z,100541.60
2019-05-16T04:37:45.849Z,100536.33
2019-05-16T04:40:17.452Z,100536.76
2019-05-16T04:42:51.058Z,100534.95
2019-05-16T04:45:23.721Z,100532.72
2019-05-16T04:47:55.009Z,100532.30
2019-05-16T04:50:26.425Z,100541.41
2019-05-16T04:53:01.175Z,100537.00
2019-05-16T04:55:31.562Z,100541.44
2019-05-16T04:58:03.116Z,100542.27
2019-05-16T05:00:34.878Z,100538.34
2019-05-16T05:03:06.219Z,100536.63
2019-05-16T05:05:37.573Z,100533.16
2019-05-16T05:08:10.856Z,100534.58
2019-05-16T05:10:41.984Z,100537.22
2019-05-16T05:13:13.364Z,100537.22
2019-05-16T05:15:44.710Z,100538.94
2019-05-16T05:18:16.151Z,100541.01
2019-05-16T05:20:47.432Z,100536.14
2019-05-16T05:23:20.902Z,100537.45
2019-05-16T05:25:51.902Z,100538.29
2019-05-16T05:28:24.270Z,100537.13
2019-05-16T05:30:55.623Z,100535.04
2019-05-16T05:33:26.961Z,100535.66
2019-05-16T05:36:00.768Z,100538.42
2019-05-16T05:38:31.390Z,100533.58
2019-05-16T05:41:02.821Z,100536.43
2019-05-16T05:43:34.191Z,100530.72
2019-05-16T05:46:05.681Z,100532.52
2019-05-16T05:48:37.110Z,100530.51
2019-05-16T05:51:11.046Z,100533.70
2019-05-16T05:54:40.694Z,100538.95
2019-05-16T05:57:00.808Z,100534.22
2019-05-16T05:59:32.129Z,100543.62
2019-05-16T06:02:03.577Z,100545.11
2019-05-16T06:04:34.817Z,100536.75
2019-05-16T06:07:06.306Z,100539.89
2019-05-16T06:09:50.523Z,100534.41
2019-05-16T06:12:10.725Z,100530.59
2019-05-16T06:14:42.231Z,100528.36
2019-05-16T06:17:13.587Z,100528.62
2019-05-16T06:19:45.090Z,100526.06
2019-05-16T06:22:16.461Z,100523.59
2019-05-16T06:24:50.276Z,100522.72
2019-05-16T06:27:21.184Z,100519.72
2019-05-16T06:29:52.531Z,100523.84
2019-05-16T06:32:23.999Z,100520.80
2019-05-16T06:34:55.302Z,100518.55
2019-05-16T06:37:26.852Z,100517.18
2019-05-16T06:40:00.517Z,100515.04
2019-05-16T06:42:32.082Z,100517.76
2019-05-16T06:45:03.904Z,100515.15
2019-05-16T06:47:35.166Z,100509.89
2019-05-16T06:50:07.829Z,100515.59
2019-05-16T06:52:40.946Z,100508.55
2019-05-16T06:55:13.228Z,100509.05
2019-05-16T06:57:44.668Z,100501.17
2019-05-16T07:00:16.786Z,100508.30
2019-05-16T07:02:49.905Z,100506.07
2019-05-16T07:05:21.267Z,100504.80
2019-05-16T07:07:52.701Z,100501.73
2019-05-16T07:10:24.129Z,100494.34
2019-05-16T07:12:55.376Z,100492.65
2019-05-16T07:15:26.750Z,100491.77
2019-05-16T07:17:59.732Z,100495.30
2019-05-16T07:20:31.248Z,100495.80
2019-05-16T07:23:02.704Z,100491.46
2019-05-16T07:25:34.277Z,100480.47
2019-05-16T07:28:05.640Z,100484.05
2019-05-16T07:30:37.140Z,100471.36
2019-05-16T07:33:09.832Z,100472.73
2019-05-16T07:35:41.363Z,100471.04
2019-05-16T07:38:12.970Z,100465.86
2019-05-16T07:40:44.389Z,100465.95
2019-05-16T07:43:15.820Z,100464.64
2019-05-16T07:45:47.159Z,100468.21
2019-05-16T07:48:21.614Z,100462.05
2019-05-16T07:50:52.915Z,100469.12
2019-05-16T07:53:24.928Z,100463.38
2019-05-16T07:55:56.303Z,100461.63
2019-05-16T07:58:27.618Z,100454.55
2019-05-16T08:01:07.390Z,100458.53
2019-05-16T08:03:32.195Z,100455.86
2019-05-16T08:06:03.645Z,100451.01
2019-05-16T08:08:35.087Z,100453.66
2019-05-16T08:11:06.655Z,100451.03
2019-05-16T08:13:39.995Z,100439.08
2019-05-16T08:16:11.331Z,100438.58
2019-05-16T08:18:45.237Z,100435.43
2019-05-16T08:21:16.933Z,100436.77
2019-05-16T08:23:50.312Z,100426.22
2019-05-16T08:26:22.295Z,100417.73
2019-05-16T08:28:53.781Z,100415.05
2019-05-16T08:31:25.157Z,100417.07
2019-05-16T08:33:56.556Z,100417.45
2019-05-16T08:36:27.982Z,100415.25
2019-05-16T08:41:33.921Z,100404.05
2019-05-16T08:44:06.194Z,100400.84
2019-05-16T08:46:41.657Z,100404.16
2019-05-16T08:49:12.366Z,100398.72
2019-05-16T08:51:43.784Z,100401.02
2019-05-16T08:54:15.078Z,100406.34
2019-05-16T08:56:46.416Z,100395.64
2019-05-16T08:59:21.204Z,100396.04
2019-05-16T09:01:57.558Z,100395.18
2019-05-16T09:04:25.145Z,100390.63
2019-05-16T09:06:56.729Z,100391.20
2019-05-16T09:09:41.684Z,100380.60
2019-05-16T09:12:01.845Z,100376.48
2019-05-16T09:14:38.691Z,100377.41
2019-05-16T09:17:07.554Z,100377.39
2019-05-16T09:18:30.425Z,100403.20
2019-05-16T09:19:39.380Z,100381.84
2019-05-16T09:22:10.741Z,100377.41
2019-05-16T09:24:42.152Z,100380.09
2019-05-16T09:27:14.571Z,100373.69
2019-05-16T09:29:47.217Z,100373.69
2019-05-16T09:32:21.587Z,100368.18
2019-05-16T09:34:53.044Z,100369.39
2019-05-16T09:37:26.593Z,100369.03
2019-05-16T09:39:57.604Z,100364.09
2019-05-16T09:42:29.017Z,100355.90
2019-05-16T09:45:00.428Z,100349.02
2019-05-16T09:47:32.128Z,100346.59
2019-05-16T09:50:06.884Z,100342.83
2019-05-16T09:52:38.662Z,100342.84
2019-05-16T09:55:11.122Z,100345.34
2019-05-16T09:57:42.536Z,100344.56
2019-05-16T10:00:22.991Z,100336.34
2019-05-16T10:02:54.466Z,100335.53
2019-05-16T10:05:26.886Z,100332.17
2019-05-16T10:07:58.761Z,100329.27
2019-05-16T10:10:30.321Z,100331.16
2019-05-16T10:13:01.754Z,100332.84
2019-05-16T10:15:33.115Z,100332.95
2019-05-16T10:18:07.341Z,100323.45
2019-05-16T10:20:37.844Z,100323.00
2019-05-16T10:23:14.985Z,100318.05
2019-05-16T10:25:42.938Z,100324.48
2019-05-16T10:28:14.486Z,100321.28
2019-05-16T10:30:49.721Z,100322.83
2019-05-16T10:33:19.582Z,100312.06
2019-05-16T10:35:51.161Z,100311.20
2019-05-16T10:38:22.752Z,100306.94
2019-05-16T10:40:56.483Z,100300.50
2019-05-16T16:08:12.733Z,99929.03
2019-05-16T16:10:48.938Z,99927.88
2019-05-16T16:13:30.728Z,99923.97
2019-05-16T16:16:35.607Z,99922.63
2019-05-16T16:19:26.845Z,99914.22
2019-05-16T16:22:07.546Z,99913.70
2019-05-16T16:24:51.048Z,99917.03
2019-05-16T16:27:22.682Z,99916.66
2019-05-16T16:30:02.066Z,99914.63
2019-05-16T16:32:59.617Z,99914.08
2019-05-16T16:35:47.632Z,99916.44
2019-05-16T16:38:12.829Z,99911.41
2019-05-16T16:40:50.622Z,99909.12
2019-05-16T16:43:31.546Z,99922.80
2019-05-16T16:46:13.033Z,99924.37
2019-05-16T16:48:39.839Z,99919.97
2019-05-16T16:51:11.422Z,99921.81
2019-05-16T16:54:23.434Z,99917.28
2019-05-16T17:01:12.020Z,99925.67
2019-05-16T17:06:47.654Z,99927.04
2019-05-16T17:09:33.316Z,99927.25
2019-05-16T17:12:13.505Z,99923.52
2019-05-16T17:14:46.609Z,99930.99
2019-05-16T17:17:19.578Z,99933.20
2019-05-16T17:19:59.045Z,99933.05
2019-05-16T17:22:27.177Z,99938.10
2019-05-16T17:24:58.635Z,99937.16
2019-05-16T17:27:30.443Z,99934.94
2019-05-16T17:30:01.999Z,99934.09
2019-05-16T17:32:34.670Z,99926.34
2019-05-16T17:35:12.448Z,99930.41
2019-05-16T17:37:47.279Z,99925.84
2019-05-16T17:40:27.442Z,99922.08
2019-05-16T17:45:57.474Z,99920.81
2019-05-16T17:48:30.052Z,99920.09
2019-05-16T17:51:01.689Z,99917.40
2019-05-16T17:53:33.200Z,99921.11
2019-05-16T17:56:06.886Z,99919.64
2019-05-16T17:58:38.675Z,99923.59
2019-05-16T18:01:09.938Z,99923.64
2019-05-16T18:03:41.301Z,99921.03
2019-05-16T18:06:12.649Z,99921.15
2019-05-16T18:08:46.664Z,99924.30
2019-05-16T18:11:17.755Z,99926.77
2019-05-16T18:13:49.435Z,99931.84
2019-05-16T18:16:20.943Z,99940.09
2019-05-16T18:18:53.450Z,99938.45
2019-05-16T18:21:24.716Z,99937.59
2019-05-16T18:23:56.075Z,99929.68
2019-05-16T18:26:27.794Z,99930.51
2019-05-16T18:28:59.229Z,99931.81
2019-05-16T18:31:32.165Z,99939.80
2019-05-16T18:34:03.878Z,99936.77
2019-05-16T18:36:38.089Z,99934.41
2019-05-16T18:39:09.709Z,99930.16
2019-05-16T18:41:41.250Z,99931.15
2019-05-16T18:44:12.638Z,99930.74
2019-05-16T18:46:44.109Z,99933.46
2019-05-16T18:49:15.547Z,99928.02
2019-05-16T18:51:46.984Z,99926.75
2019-05-16T18:54:18.409Z,99932.75
2019-05-16T18:56:52.994Z,99930.45
2019-05-16T18:59:26.217Z,99937.23
2019-05-16T19:01:58.520Z,99935.14
2019-05-16T19:04:29.882Z,99925.55
2019-05-16T19:07:01.185Z,99934.90
2019-05-16T19:09:32.595Z,99930.19
2019-05-16T19:12:06.451Z,99931.61
2019-05-16T19:14:37.548Z,99938.25
2019-05-16T19:17:21.094Z,99933.45
2019-05-16T19:19:41.926Z,99936.64
2019-05-16T19:22:13.428Z,99931.38
2019-05-16T19:24:46.481Z,99932.41
2019-05-16T19:27:18.098Z,99934.53
2019-05-16T19:29:49.538Z,99932.33
2019-05-16T19:32:21.002Z,99938.92
2019-05-16T19:34:52.621Z,99943.06
2019-05-16T19:37:24.107Z,99936.45
2019-05-16T19:39:56.919Z,99944.00
2019-05-16T19:42:29.765Z,99938.27
2019-05-16T19:45:01.776Z,99936.08
2019-05-16T19:47:37.760Z,99934.77
2019-05-16T19:50:08.421Z,99938.33
2019-05-16T19:52:39.836Z,99937.02
2019-05-16T19:55:11.459Z,99939.28
2019-05-16T19:57:43.026Z,99933.06
2019-05-16T20:00:17.170Z,99937.09
2019-05-16T20:02:48.837Z,99941.93
2019-05-16T20:05:20.384Z,99940.16
2019-05-16T20:07:51.811Z,99941.13
2019-05-16T20:10:23.483Z,99939.41
2019-05-16T20:12:56.914Z,99937.63
2019-05-16T20:15:28.006Z,99946.00
2019-05-16T20:18:00.405Z,99944.25
2019-05-16T20:20:31.869Z,99945.59
2019-05-16T20:23:03.158Z,99943.39
2019-05-16T20:25:36.590Z,99939.89
2019-05-16T20:28:09.135Z,99939.03
2019-05-16T20:30:40.748Z,99936.80
2019-05-16T20:33:12.206Z,99940.34
2019-05-16T20:35:43.797Z,99942.11
2019-05-16T20:38:17.150Z,99939.89
2019-05-16T20:40:48.436Z,99944.77
2019-05-16T20:43:19.931Z,99948.30
2019-05-16T20:45:51.437Z,99948.28
2019-05-16T20:48:22.839Z,99939.03
2019-05-16T20:50:56.662Z,99942.13
2019-05-16T20:53:27.817Z,99935.97
2019-05-16T20:55:59.808Z,99939.48
2019-05-16T20:58:31.386Z,99935.52
2019-05-16T21:01:02.786Z,99934.19
2019-05-16T21:03:34.855Z,99931.98
2019-05-16T21:06:08.389Z,99933.34
2019-05-16T21:08:39.793Z,99926.74
2019-05-16T21:11:11.193Z,99933.36
2019-05-16T21:13:42.683Z,99928.96
2019-05-16T21:16:16.291Z,99930.28
2019-05-16T21:18:47.427Z,99929.40
2019-05-16T21:21:19.323Z,99926.30
2019-05-16T21:23:50.824Z,99923.69
2019-05-16T21:26:22.174Z,99925.89
2019-05-16T21:28:53.552Z,99927.20
2019-05-16T21:31:27.346Z,99928.10
2019-05-16T21:33:59.210Z,99925.45
2019-05-16T21:36:30.458Z,99919.73
2019-05-16T21:39:01.762Z,99917.09
2019-05-16T21:41:36.569Z,99914.00
2019-05-16T21:44:08.017Z,99912.67
2019-05-16T21:46:39.385Z,99902.97
2019-05-16T21:49:10.766Z,99898.56
2019-05-16T21:51:42.131Z,99895.05
2019-05-16T21:54:13.573Z,99893.30
2019-05-16T21:56:46.791Z,99887.56
2019-05-16T21:59:18.255Z,99887.13
2019-05-16T22:01:50.297Z,99889.78
2019-05-16T22:04:21.811Z,99883.17
2019-05-16T22:06:53.257Z,99880.08
2019-05-16T22:09:26.529Z,99878.77
2019-05-16T22:11:57.596Z,99877.00
2019-05-16T22:14:36.833Z,99877.00
2019-05-16T22:17:08.549Z,99871.27
2019-05-16T22:19:40.078Z,99870.83
2019-05-16T22:22:11.623Z,99867.75
2019-05-16T22:24:43.289Z,99862.45
2019-05-16T22:27:14.697Z,99862.02
2019-05-16T22:29:46.154Z,99861.58
2019-05-16T22:32:17.719Z,99861.13
2019-05-16T22:34:49.145Z,99857.58
2019-05-16T22:37:20.631Z,99858.48
2019-05-16T22:39:52.064Z,99860.65
2019-05-16T22:42:26.623Z,99852.28
2019-05-16T22:44:57.412Z,99852.72
2019-05-16T22:47:28.767Z,99851.80
2019-05-16T22:50:00.218Z,99849.14
2019-05-16T22:52:32.151Z,99850.45
2019-05-16T22:55:03.961Z,99843.42
2019-05-16T22:57:35.352Z,99847.39
2019-05-16T23:00:13.462Z,99842.10
2019-05-16T23:02:46.103Z,99844.30
2019-05-16T23:05:17.563Z,99835.93
2019-05-16T23:08:02.125Z,99836.38
2019-05-16T23:10:24.986Z,99829.32
2019-05-16T23:12:57.162Z,99827.98
2019-05-16T23:15:28.242Z,99830.17
2019-05-16T23:17:59.663Z,99828.41
2019-05-16T23:20:30.927Z,99830.61
2019-05-16T23:23:02.229Z,99822.23
2019-05-16T23:25:33.554Z,99812.97
2019-05-16T23:28:07.376Z,99806.37
2019-05-16T23:30:38.106Z,99817.37
2019-05-16T23:33:09.530Z,99805.04
2019-05-16T23:35:40.823Z,99804.16
2019-05-16T23:38:19.494Z,99804.59
2019-05-16T23:40:46.785Z,99800.18
2019-05-16T23:43:18.317Z,99799.73
2019-05-16T23:45:49.642Z,99790.05
2019-05-16T23:48:20.951Z,99789.15
2019-05-16T23:50:52.231Z,99786.95
2019-05-16T23:53:23.515Z,99785.17
2019-05-16T23:55:56.767Z,99772.84
2019-05-16T23:58:27.768Z,99771.97
